createdAt,value
2023-04-17T00:00:21.743Z,12.75
2023-04-17T00:02:49.005Z,15.45
2023-04-17T00:05:16.931Z,16.23
2023-04-17T00:07:44.948Z,15.15
2023-04-17T00:10:12.237Z,13.40
2023-04-17T00:12:39.412Z,15.88
2023-04-17T00:15:06.923Z,14.43
2023-04-17T00:17:34.080Z,15.60
2023-04-17T00:20:01.546Z,12.15
2023-04-17T00:22:28.700Z,14.80
2023-04-17T00:24:55.849Z,16.83
2023-04-17T00:27:23.074Z,15.48
2023-04-17T00:29:50.197Z,16.20
2023-04-17T00:32:17.418Z,14.98
2023-04-17T00:34:44.580Z,10.57
2023-04-17T00:37:11.745Z,12.32
2023-04-17T00:39:39.053Z,13.65
2023-04-17T00:42:06.290Z,14.88
2023-04-17T00:44:33.680Z,16.52
2023-04-17T00:47:01.117Z,15.73
2023-04-17T00:49:28.420Z,17.92
2023-04-17T00:51:55.726Z,15.25
2023-04-17T00:54:23.844Z,13.98
2023-04-17T00:56:52.425Z,14.35
2023-04-17T00:59:19.609Z,16.05
2023-04-17T01:01:46.821Z,11.05
2023-04-17T01:04:14.559Z,15.15
2023-04-17T01:06:41.997Z,14.57
2023-04-17T01:09:09.469Z,13.65
2023-04-17T01:11:39.301Z,15.98
2023-04-17T01:14:06.459Z,12.82
2023-04-17T01:16:33.769Z,11.30
2023-04-17T01:19:01.522Z,11.93
2023-04-17T01:21:28.885Z,11.02
2023-04-17T01:23:56.160Z,13.57
2023-04-17T01:26:24.541Z,10.63
2023-04-17T01:28:57.300Z,12.80
2023-04-17T01:31:25.196Z,10.15
2023-04-17T01:33:52.932Z,12.13
2023-04-17T01:36:20.068Z,11.63
2023-04-17T01:38:47.395Z,8.93
2023-04-17T01:41:14.512Z,12.60
2023-04-17T01:43:42.981Z,12.13
2023-04-17T01:46:10.634Z,10.18
2023-04-17T01:48:37.793Z,12.25
2023-04-17T01:51:05.258Z,12.60
2023-04-17T01:53:32.840Z,11.13
2023-04-17T01:56:03.056Z,12.43
2023-04-17T01:58:30.452Z,8.80
2023-04-17T02:00:57.749Z,12.00
2023-04-17T02:03:25.057Z,12.65
2023-04-17T02:05:53.710Z,12.38
2023-04-17T02:08:20.889Z,10.63
2023-04-17T02:10:48.190Z,11.63
2023-04-17T02:13:15.528Z,9.52
2023-04-17T02:15:42.707Z,10.23
2023-04-17T02:18:10.030Z,9.05
2023-04-17T02:20:38.196Z,12.10
2023-04-17T02:23:06.602Z,10.02
2023-04-17T02:25:34.336Z,6.90
2023-04-17T02:28:01.725Z,11.07
2023-04-17T02:30:29.182Z,11.43
2023-04-17T02:32:56.434Z,12.65
2023-04-17T02:35:24.837Z,9.73
2023-04-17T02:37:52.151Z,8.40
2023-04-17T02:40:19.370Z,11.18
2023-04-17T02:42:46.518Z,10.77
2023-04-17T02:45:13.776Z,9.25
2023-04-17T02:47:41.412Z,11.63
2023-04-17T02:50:09.206Z,6.82
2023-04-17T02:52:36.395Z,9.98
2023-04-17T02:55:03.571Z,11.73
2023-04-17T02:57:30.724Z,9.73
2023-04-17T02:59:58.035Z,9.60
2023-04-17T03:02:25.768Z,10.88
2023-04-17T03:04:53.194Z,10.52
2023-04-17T03:07:21.194Z,11.00
2023-04-17T03:09:48.837Z,9.38
2023-04-17T03:12:16.742Z,6.40
2023-04-17T03:14:44.233Z,10.45
2023-04-17T03:17:11.875Z,11.05
2023-04-17T03:19:39.027Z,8.60
2023-04-17T03:22:06.261Z,9.63
2023-04-17T03:24:33.642Z,11.88
2023-04-17T03:27:02.231Z,12.18
2023-04-17T03:29:29.603Z,12.52
2023-04-17T03:31:56.814Z,12.65
2023-04-17T03:34:24.143Z,9.88
2023-04-17T03:36:51.411Z,11.75
2023-04-17T03:39:18.721Z,12.02
2023-04-17T03:41:45.886Z,12.55
2023-04-17T03:44:13.196Z,11.20
2023-04-17T03:46:40.848Z,10.85
2023-04-17T03:49:08.150Z,13.27
2023-04-17T03:51:35.383Z,13.60
2023-04-17T03:54:02.604Z,13.27
2023-04-17T03:56:29.757Z,12.73
2023-04-17T03:58:56.859Z,9.05
2023-04-17T04:01:28.318Z,8.73
2023-04-17T04:03:56.034Z,9.13
2023-04-17T04:06:23.245Z,12.30
2023-04-17T04:08:50.612Z,11.70
2023-04-17T04:11:17.881Z,10.80
2023-04-17T04:13:45.023Z,9.07
2023-04-17T04:16:12.350Z,12.80
2023-04-17T04:18:39.538Z,10.85
2023-04-17T04:21:06.795Z,12.00
2023-04-17T04:23:34.639Z,13.00
2023-04-17T04:26:01.938Z,13.90
2023-04-17T04:28:30.222Z,12.93
2023-04-17T04:30:58.727Z,13.93
2023-04-17T04:33:27.658Z,11.77
2023-04-17T04:35:56.597Z,9.85
2023-04-17T04:38:30.027Z,13.38
2023-04-17T04:41:06.264Z,13.40
2023-04-17T04:43:33.968Z,13.25
2023-04-17T04:46:01.428Z,10.82
2023-04-17T04:48:28.950Z,9.95
2023-04-17T04:50:56.535Z,13.48
2023-04-17T04:53:24.572Z,13.18
2023-04-17T04:55:51.664Z,14.02
2023-04-17T04:58:19.135Z,12.93
2023-04-17T05:00:46.363Z,12.48
2023-04-17T05:03:13.695Z,13.07
2023-04-17T05:05:41.852Z,12.32
2023-04-17T05:08:09.027Z,13.38
2023-04-17T05:10:36.177Z,9.63
2023-04-17T05:13:03.338Z,13.07
2023-04-17T05:15:30.770Z,12.95
2023-04-17T05:17:58.057Z,13.48
2023-04-17T05:20:26.301Z,10.07
2023-04-17T05:22:53.472Z,11.23
2023-04-17T05:25:20.892Z,13.07
2023-04-17T05:27:48.222Z,13.32
2023-04-17T05:30:15.772Z,14.48
2023-04-17T05:32:43.106Z,10.50
2023-04-17T05:35:10.537Z,10.73
2023-04-17T05:37:37.679Z,13.40
2023-04-17T05:40:06.885Z,11.07
2023-04-17T05:42:34.869Z,13.40
2023-04-17T05:45:02.184Z,10.73
2023-04-17T05:47:29.441Z,9.32
2023-04-17T05:49:59.979Z,15.43
2023-04-17T05:52:27.193Z,12.55
2023-04-17T05:54:54.313Z,15.07
2023-04-17T05:57:21.495Z,13.15
2023-04-17T05:59:49.306Z,14.07
2023-04-17T06:02:17.000Z,16.65
2023-04-17T06:04:44.905Z,12.98
2023-04-17T06:07:12.329Z,14.88
2023-04-17T06:09:40.812Z,12.77
2023-04-17T06:12:14.755Z,14.73
2023-04-17T06:14:41.958Z,14.02
2023-04-17T06:17:09.343Z,11.88
2023-04-17T06:19:36.634Z,14.90
2023-04-17T06:22:03.784Z,14.40
2023-04-17T06:24:31.022Z,16.20
2023-04-17T06:26:58.219Z,15.82
2023-04-17T06:29:25.489Z,13.57
2023-04-17T06:31:52.654Z,15.77
2023-04-17T06:34:19.822Z,15.82
2023-04-17T06:36:47.117Z,14.32
2023-04-17T06:39:14.495Z,15.48
2023-04-17T06:41:41.682Z,15.95
2023-04-17T06:44:08.853Z,15.45
2023-04-17T06:46:36.143Z,11.68
2023-04-17T06:49:03.274Z,16.20
2023-04-17T06:51:30.568Z,10.68
2023-04-17T06:53:57.751Z,14.30
2023-04-17T06:56:24.900Z,14.90
2023-04-17T06:58:53.231Z,11.45
2023-04-17T07:01:20.897Z,13.10
2023-04-17T07:03:48.354Z,15.13
2023-04-17T07:06:15.759Z,14.18
2023-04-17T07:08:43.039Z,10.65
2023-04-17T07:11:10.322Z,16.42
2023-04-17T07:13:37.628Z,14.43
2023-04-17T07:16:06.176Z,16.52
2023-04-17T07:18:33.562Z,13.98
2023-04-17T07:21:01.412Z,13.95
2023-04-17T07:23:28.716Z,15.07
2023-04-17T07:25:55.887Z,12.73
2023-04-17T07:28:23.177Z,12.13
2023-04-17T07:30:50.330Z,8.93
2023-04-17T07:33:17.695Z,12.93
2023-04-17T07:35:44.895Z,14.70
2023-04-17T07:38:12.178Z,16.27
2023-04-17T07:40:39.447Z,13.15
2023-04-17T07:43:07.713Z,15.32
2023-04-17T07:45:37.263Z,15.73
2023-04-17T07:48:06.162Z,14.82
2023-04-17T07:50:33.613Z,12.48
2023-04-17T07:53:01.964Z,12.43
2023-04-17T07:55:29.206Z,13.95
2023-04-17T07:57:56.613Z,14.80
2023-04-17T08:00:24.020Z,15.02
2023-04-17T08:02:51.579Z,13.77
2023-04-17T08:05:19.079Z,14.50
2023-04-17T08:07:46.369Z,15.32
2023-04-17T08:10:13.723Z,10.57
2023-04-17T08:12:41.439Z,9.27
2023-04-17T08:15:09.434Z,11.23
2023-04-17T08:17:36.836Z,14.02
2023-04-17T08:20:12.082Z,11.93
2023-04-17T08:22:39.834Z,14.40
2023-04-17T08:25:09.610Z,13.15
2023-04-17T08:27:37.343Z,13.55
2023-04-17T08:30:05.046Z,14.80
2023-04-17T08:32:38.212Z,10.45
2023-04-17T08:35:05.545Z,13.15
2023-04-17T08:37:32.940Z,9.93
2023-04-17T08:40:00.792Z,10.68
2023-04-17T08:42:29.037Z,13.02
2023-04-17T08:45:01.017Z,12.88
2023-04-17T08:47:29.374Z,9.80
2023-04-17T08:49:57.119Z,12.07
2023-04-17T08:52:24.416Z,10.75
2023-04-17T08:54:51.712Z,10.75
2023-04-17T08:57:18.902Z,12.52
2023-04-17T08:59:46.899Z,14.73
2023-04-17T09:02:14.385Z,12.18
2023-04-17T09:04:45.917Z,11.70
2023-04-17T09:07:15.878Z,12.65
2023-04-17T09:09:54.247Z,14.27
2023-04-17T09:12:22.419Z,13.23
2023-04-17T09:14:49.889Z,13.43
2023-04-17T09:17:18.114Z,9.15
2023-04-17T09:20:07.784Z,12.27
2023-04-17T09:22:36.135Z,12.48
2023-04-17T09:25:03.622Z,11.82
2023-04-17T09:30:53.623Z,9.60
2023-04-17T09:33:20.916Z,12.38
2023-04-17T09:35:48.931Z,13.38
2023-04-17T09:38:17.435Z,12.88
2023-04-17T09:40:45.651Z,13.07
2023-04-17T09:43:12.861Z,12.02
2023-04-17T09:45:42.495Z,14.10
2023-04-17T09:48:20.268Z,12.02
2023-04-17T09:53:29.732Z,10.38
2023-04-17T09:55:58.843Z,13.88
2023-04-17T09:58:26.046Z,12.77
2023-04-17T10:00:53.319Z,10.27
2023-04-17T10:03:21.106Z,11.65
2023-04-17T10:05:48.808Z,12.80
2023-04-17T10:08:16.830Z,13.02
2023-04-17T10:10:44.008Z,9.75
2023-04-17T10:13:12.788Z,11.10
2023-04-17T10:15:40.377Z,10.43
2023-04-17T10:18:23.445Z,10.05
2023-04-17T10:20:53.186Z,10.75
2023-04-17T10:23:31.502Z,12.35
2023-04-17T10:26:17.929Z,11.98
2023-04-17T10:28:49.522Z,13.32
2023-04-17T10:31:16.767Z,12.23
2023-04-17T10:33:54.469Z,10.45
2023-04-17T10:36:40.524Z,10.20
2023-04-17T10:39:14.722Z,11.63
2023-04-17T10:42:02.361Z,11.20
2023-04-17T10:44:56.034Z,10.10
2023-04-17T10:47:23.333Z,11.50
2023-04-17T10:49:58.728Z,10.27
2023-04-17T10:52:35.156Z,12.15
2023-04-17T10:55:20.695Z,12.52
2023-04-17T10:58:02.266Z,11.02
2023-04-17T11:00:39.401Z,11.85
2023-04-17T11:03:07.518Z,12.65
2023-04-17T11:05:35.949Z,10.27
2023-04-17T11:08:03.567Z,12.07
2023-04-17T11:10:31.092Z,13.50
2023-04-17T11:12:58.477Z,9.30
2023-04-17T11:15:28.775Z,11.95
2023-04-17T11:17:56.500Z,13.40
2023-04-17T11:21:03.556Z,9.73
2023-04-17T11:26:54.306Z,11.85
2023-04-17T11:29:22.431Z,14.20
2023-04-17T11:31:52.217Z,10.07
2023-04-17T11:34:21.163Z,11.63
2023-04-17T11:40:23.776Z,9.45
2023-04-17T11:42:50.920Z,13.85
2023-04-17T11:45:21.177Z,9.57
2023-04-17T11:47:48.681Z,12.57
2023-04-17T11:50:16.373Z,10.77
2023-04-17T11:52:44.420Z,13.27
2023-04-17T11:55:12.408Z,13.25
2023-04-17T11:57:45.940Z,11.05
2023-04-17T12:00:14.432Z,11.95
2023-04-17T12:05:15.943Z,13.18
2023-04-17T12:07:43.256Z,11.68
2023-04-17T12:10:11.205Z,13.00
2023-04-17T12:12:38.373Z,11.27
2023-04-17T12:15:06.034Z,11.85
2023-04-17T12:17:33.541Z,11.77
2023-04-17T12:20:04.136Z,11.52
2023-04-17T12:22:31.354Z,10.23
2023-04-17T12:24:58.523Z,11.68
2023-04-17T12:27:27.887Z,12.93
2023-04-17T12:29:55.334Z,9.02
2023-04-17T12:32:28.084Z,10.15
2023-04-17T12:34:56.632Z,8.90
2023-04-17T12:39:53.488Z,8.15
2023-04-17T12:42:21.058Z,10.27
2023-04-17T12:44:48.493Z,10.32
2023-04-17T12:47:16.563Z,10.95
2023-04-17T12:49:43.734Z,11.07
2023-04-17T12:52:12.676Z,9.60
2023-04-17T12:54:41.320Z,8.75
2023-04-17T12:57:09.954Z,10.15
2023-04-17T12:59:37.148Z,10.52
2023-04-17T13:02:05.170Z,10.43
2023-04-17T13:04:33.473Z,9.60
2023-04-17T13:09:28.193Z,11.10
2023-04-17T13:11:55.370Z,10.18
2023-04-17T13:14:23.255Z,10.55
2023-04-17T13:16:51.301Z,8.73
2023-04-17T13:19:19.242Z,9.95
2023-04-17T13:21:47.077Z,8.25
2023-04-17T13:24:17.126Z,8.75
2023-04-17T13:26:44.990Z,9.23
2023-04-17T13:29:12.563Z,8.55
2023-04-17T13:31:40.124Z,9.77
2023-04-17T13:34:07.880Z,10.38
2023-04-17T13:36:35.133Z,9.02
2023-04-17T13:39:02.465Z,9.13
2023-04-17T13:41:31.736Z,8.65
2023-04-17T13:43:58.874Z,10.32
2023-04-17T13:46:26.173Z,10.00
2023-04-17T13:49:14.921Z,9.30
2023-04-17T13:51:42.627Z,9.85
2023-04-17T13:54:10.721Z,7.25
2023-04-17T13:56:39.003Z,9.05
2023-04-17T13:59:06.819Z,7.32
2023-04-17T14:07:49.684Z,9.23
2023-04-17T14:13:24.170Z,8.77
2023-04-17T14:16:26.794Z,7.50
2023-04-17T14:18:54.499Z,5.03
2023-04-17T14:21:43.948Z,5.80
2023-04-17T14:29:37.181Z,6.25
2023-04-17T14:32:06.708Z,6.78
2023-04-17T14:34:34.098Z,5.22
2023-04-17T14:37:02.292Z,6.03
2023-04-17T14:40:09.380Z,4.82
2023-04-17T14:42:57.420Z,7.45
2023-04-17T14:45:27.196Z,6.85
2023-04-17T14:47:54.512Z,7.07
2023-04-17T14:50:21.818Z,7.72
2023-04-17T14:52:49.019Z,8.05
2023-04-17T14:55:16.322Z,7.50
2023-04-17T14:57:43.626Z,10.20
2023-04-17T15:00:11.276Z,8.88
2023-04-17T15:02:39.255Z,10.20
2023-04-17T15:05:07.420Z,10.95
2023-04-17T15:07:35.344Z,9.68
2023-04-17T15:10:03.024Z,10.75
2023-04-17T15:12:31.126Z,8.65
2023-04-17T15:14:59.043Z,11.18
2023-04-17T15:17:28.011Z,11.38
2023-04-17T15:19:57.445Z,11.57
2023-04-17T15:22:25.065Z,10.32
2023-04-17T15:24:52.361Z,11.48
2023-04-17T15:27:20.097Z,10.18
2023-04-17T15:29:47.297Z,10.35
2023-04-17T15:35:47.798Z,11.75
2023-04-17T15:38:14.988Z,9.40
2023-04-17T15:40:42.214Z,9.55
2023-04-17T15:43:12.318Z,10.65
2023-04-17T15:45:39.545Z,9.75
2023-04-17T15:48:06.873Z,9.95
2023-04-17T15:50:35.553Z,8.07
2023-04-17T15:53:03.103Z,10.38
2023-04-17T15:55:30.334Z,9.95
2023-04-17T15:57:57.563Z,10.48
2023-04-17T16:00:24.885Z,10.90
2023-04-17T16:02:52.242Z,8.93
2023-04-17T16:05:20.180Z,10.60
2023-04-17T16:07:48.042Z,10.50
2023-04-17T16:10:15.742Z,7.93
2023-04-17T16:12:43.533Z,7.45
2023-04-17T16:15:12.557Z,9.90
2023-04-17T16:17:39.841Z,7.32
2023-04-17T16:20:07.314Z,8.30
2023-04-17T16:22:34.506Z,8.18
2023-04-17T16:25:05.039Z,7.28
2023-04-17T16:27:32.676Z,7.90
2023-04-17T16:29:59.957Z,7.55
2023-04-17T16:32:28.046Z,8.95
2023-04-17T16:34:55.650Z,7.65
2023-04-17T16:37:22.850Z,9.27
2023-04-17T16:39:51.545Z,8.05
2023-04-17T16:42:18.733Z,8.68
2023-04-17T16:44:46.388Z,9.40
2023-04-17T16:47:14.667Z,6.43
2023-04-17T16:49:42.744Z,7.82
2023-04-17T16:52:10.617Z,9.32
2023-04-17T16:54:37.945Z,8.52
2023-04-17T16:57:06.092Z,9.18
2023-04-17T16:59:33.374Z,7.88
2023-04-17T17:02:03.744Z,9.55
2023-04-17T17:04:31.588Z,8.45
2023-04-17T17:06:58.907Z,7.43
2023-04-17T17:09:26.577Z,7.35
2023-04-17T17:11:53.905Z,7.30
2023-04-17T17:14:21.102Z,8.95
2023-04-17T17:16:48.342Z,9.52
2023-04-17T17:19:16.737Z,8.63
2023-04-17T17:21:43.909Z,8.00
2023-04-17T17:27:40.009Z,7.63
2023-04-17T17:30:07.579Z,8.60
2023-04-17T17:32:34.864Z,6.22
2023-04-17T17:35:02.357Z,9.88
2023-04-17T17:37:29.528Z,5.95
2023-04-17T17:39:56.742Z,9.38
2023-04-17T17:42:24.425Z,8.95
2023-04-17T17:44:51.595Z,9.63
2023-04-17T17:47:18.824Z,10.52
2023-04-17T17:49:46.129Z,11.10
2023-04-17T17:52:13.315Z,7.00
2023-04-17T17:54:41.980Z,10.50
2023-04-17T18:02:03.911Z,8.02
2023-04-17T18:04:31.437Z,9.00
2023-04-17T18:06:58.705Z,7.45
2023-04-17T18:09:25.917Z,7.57
2023-04-17T18:11:53.205Z,8.60
2023-04-17T18:14:20.466Z,9.75
2023-04-17T18:16:48.578Z,9.13
2023-04-17T18:19:15.915Z,10.15
2023-04-17T18:21:43.817Z,8.52
2023-04-17T18:24:12.355Z,10.77
2023-04-17T18:26:39.789Z,8.00
2023-04-17T18:29:07.944Z,8.20
2023-04-17T18:31:35.205Z,9.77
2023-04-17T18:34:02.860Z,6.15
2023-04-17T18:36:30.838Z,9.35
2023-04-17T18:38:58.126Z,10.10
2023-04-17T18:41:26.773Z,11.48
2023-04-17T18:46:22.050Z,8.30
2023-04-17T18:48:49.308Z,8.88
2023-04-17T18:51:17.500Z,10.77
2023-04-17T18:53:44.745Z,10.98
2023-04-17T18:56:13.677Z,10.68
2023-04-17T18:58:40.939Z,9.50
2023-04-17T19:01:10.234Z,9.85
2023-04-17T19:03:38.309Z,8.93
2023-04-17T19:06:06.764Z,10.32
2023-04-17T19:08:34.107Z,6.97
2023-04-17T19:11:01.434Z,11.23
2023-04-17T19:13:28.806Z,11.38
2023-04-17T19:15:56.224Z,9.70
2023-04-17T19:18:23.524Z,10.50
2023-04-17T19:20:50.796Z,11.45
2023-04-17T19:23:17.963Z,11.45
2023-04-17T19:25:45.154Z,7.85
2023-04-17T19:28:13.483Z,10.40
2023-04-17T19:30:40.720Z,13.27
2023-04-17T19:33:07.952Z,10.02
2023-04-17T19:35:35.165Z,12.60
2023-04-17T19:38:02.414Z,12.27
2023-04-17T19:40:29.898Z,11.48
2023-04-17T19:43:01.144Z,10.88
2023-04-17T19:45:28.988Z,11.82
2023-04-17T19:47:57.177Z,11.60
2023-04-17T19:50:28.294Z,11.60
2023-04-17T19:52:56.153Z,13.23
2023-04-17T19:55:23.802Z,10.52
2023-04-17T19:57:52.182Z,13.43
2023-04-17T20:00:19.500Z,9.80
2023-04-17T20:02:47.889Z,12.63
2023-04-17T20:05:15.328Z,9.75
2023-04-17T20:07:42.706Z,12.38
2023-04-17T20:10:13.293Z,11.75
2023-04-17T20:12:40.468Z,11.38
2023-04-17T20:15:07.937Z,12.43
2023-04-17T20:17:35.379Z,12.77
2023-04-17T20:20:02.663Z,11.88
2023-04-17T20:22:30.048Z,11.32
2023-04-17T20:24:57.196Z,13.07
2023-04-17T20:27:24.332Z,13.57
2023-04-17T20:29:51.500Z,12.95
2023-04-17T20:32:20.240Z,12.60
2023-04-17T20:34:47.601Z,9.98
2023-04-17T20:37:14.776Z,10.50
2023-04-17T20:39:41.914Z,10.75
2023-04-17T20:42:09.081Z,9.55
2023-04-17T20:47:22.189Z,12.93
2023-04-17T20:49:49.414Z,10.27
2023-04-17T20:52:17.614Z,8.70
2023-04-17T20:54:44.779Z,12.10
2023-04-17T20:57:11.979Z,12.05
2023-04-17T20:59:39.205Z,12.35
2023-04-17T21:02:06.662Z,10.63
2023-04-17T21:04:34.421Z,10.60
2023-04-17T21:07:02.029Z,11.73
2023-04-17T21:09:29.264Z,8.75
2023-04-17T21:11:56.467Z,9.45
2023-04-17T21:14:23.763Z,11.70
2023-04-17T21:16:51.014Z,11.55
2023-04-17T21:19:20.358Z,12.52
2023-04-17T21:21:48.467Z,11.05
2023-04-17T21:24:15.894Z,10.90
2023-04-17T21:26:43.079Z,12.30
2023-04-17T21:29:10.889Z,9.48
2023-04-17T21:31:38.584Z,10.68
2023-04-17T21:34:05.784Z,8.60
2023-04-17T21:36:33.069Z,8.43
2023-04-17T21:39:00.407Z,8.60
2023-04-17T21:41:27.547Z,10.95
2023-04-17T21:43:54.721Z,10.63
2023-04-17T21:46:22.059Z,8.60
2023-04-17T21:48:49.485Z,7.15
2023-04-17T21:51:16.602Z,10.82
2023-04-17T21:53:44.021Z,9.85
2023-04-17T21:56:11.403Z,10.93
2023-04-17T21:58:38.625Z,9.43
2023-04-17T22:01:05.962Z,10.43
2023-04-17T22:03:33.122Z,11.05
2023-04-17T22:06:00.672Z,8.98
2023-04-17T22:08:27.943Z,10.43
2023-04-17T22:10:55.183Z,10.40
2023-04-17T22:13:22.328Z,10.40
2023-04-17T22:15:49.612Z,11.02
2023-04-17T22:18:16.708Z,7.65
2023-04-17T22:20:43.880Z,11.15
2023-04-17T22:23:11.074Z,11.63
2023-04-17T22:25:38.461Z,6.97
2023-04-17T22:28:05.732Z,7.97
2023-04-17T22:30:32.839Z,10.07
2023-04-17T22:33:00.188Z,11.02
2023-04-17T22:35:27.846Z,11.15
2023-04-17T22:37:55.166Z,12.23
2023-04-17T22:40:22.551Z,9.65
2023-04-17T22:42:51.061Z,8.98
2023-04-17T22:45:18.284Z,11.57
2023-04-17T22:47:45.446Z,12.25
2023-04-17T22:50:14.459Z,12.27
2023-04-17T22:55:08.812Z,10.63
2023-04-17T22:57:36.166Z,11.75
2023-04-17T23:00:03.859Z,10.80
2023-04-17T23:02:31.332Z,8.73
2023-04-17T23:04:58.526Z,11.25
2023-04-17T23:07:25.757Z,11.90
2023-04-17T23:09:52.854Z,12.05
2023-04-17T23:12:20.037Z,11.20
2023-04-17T23:14:48.574Z,10.85
2023-04-17T23:17:15.719Z,11.07
2023-04-17T23:19:42.937Z,12.70
2023-04-17T23:22:10.222Z,10.02
2023-04-17T23:24:37.468Z,12.57
2023-04-17T23:27:04.796Z,10.90
2023-04-17T23:29:31.882Z,10.45
2023-04-17T23:31:59.081Z,10.23
2023-04-17T23:34:27.966Z,11.52
2023-04-17T23:39:22.545Z,11.23
2023-04-17T23:41:49.882Z,11.43
2023-04-17T23:44:17.251Z,11.05
2023-04-17T23:46:44.468Z,10.48
2023-04-17T23:49:11.593Z,10.52
2023-04-17T23:51:38.881Z,11.15
2023-04-17T23:54:06.093Z,11.65
2023-04-17T23:56:33.220Z,11.38
2023-04-17T23:59:00.490Z,8.27
